createdAt,value
2017-07-03T00:00:42.509Z,75.42
2017-07-03T00:01:38.750Z,75.37
2017-07-03T00:02:34.986Z,75.32
2017-07-03T00:03:31.206Z,75.27
2017-07-03T00:04:27.430Z,75.25
2017-07-03T00:05:23.657Z,75.22
2017-07-03T00:06:19.890Z,75.16
2017-07-03T00:07:16.135Z,75.15
2017-07-03T00:08:12.397Z,75.19
2017-07-03T00:09:08.626Z,75.16
2017-07-03T00:10:06.334Z,75.10
2017-07-03T00:11:02.583Z,75.09
2017-07-03T00:11:58.822Z,75.07
2017-07-03T00:12:55.079Z,75.09
2017-07-03T00:13:51.319Z,75.08
2017-07-03T00:14:47.542Z,75.15
2017-07-03T00:15:43.774Z,75.14
2017-07-03T00:16:40.006Z,75.15
2017-07-03T00:17:36.234Z,75.17
2017-07-03T00:18:32.465Z,75.16
2017-07-03T00:19:28.713Z,75.20
2017-07-03T00:20:24.948Z,75.22
2017-07-03T00:21:21.183Z,75.25
2017-07-03T00:22:17.410Z,75.20
2017-07-03T00:23:13.650Z,75.21
2017-07-03T00:24:09.920Z,75.14
2017-07-03T00:25:06.159Z,75.16
2017-07-03T00:26:02.377Z,75.17
2017-07-03T00:26:58.598Z,75.14
2017-07-03T00:27:54.843Z,75.13
2017-07-03T00:28:51.082Z,75.14
2017-07-03T00:29:47.318Z,75.15
2017-07-03T00:30:43.551Z,75.15
2017-07-03T00:31:39.782Z,75.18
2017-07-03T00:32:36.010Z,75.18
2017-07-03T00:33:32.242Z,75.17
2017-07-03T00:34:28.511Z,75.14
2017-07-03T00:35:24.738Z,75.16
2017-07-03T00:36:20.974Z,75.18
2017-07-03T00:37:17.198Z,75.20
2017-07-03T00:38:13.427Z,75.17
2017-07-03T00:39:09.666Z,75.18
2017-07-03T00:40:05.910Z,75.25
2017-07-03T00:41:02.146Z,75.29
2017-07-03T00:41:58.384Z,75.35
2017-07-03T00:42:54.614Z,75.37
2017-07-03T00:43:50.853Z,75.39
2017-07-03T00:44:47.127Z,75.42
2017-07-03T00:45:43.378Z,75.44
2017-07-03T00:46:39.610Z,75.50
2017-07-03T00:47:35.846Z,75.54
2017-07-03T00:48:32.070Z,75.58
2017-07-03T00:49:28.311Z,75.62
2017-07-03T00:50:24.534Z,75.69
2017-07-03T00:51:20.774Z,75.68
2017-07-03T00:52:16.995Z,75.69
2017-07-03T00:53:13.233Z,75.72
2017-07-03T00:54:09.462Z,75.72
2017-07-03T00:55:05.694Z,75.71
2017-07-03T00:56:01.936Z,75.73
2017-07-03T00:56:58.171Z,75.71
2017-07-03T00:57:54.394Z,75.72
2017-07-03T00:58:50.626Z,75.78
2017-07-03T00:59:46.847Z,75.83
2017-07-03T01:00:43.073Z,75.84
2017-07-03T01:01:39.313Z,75.88
2017-07-03T01:02:35.525Z,75.94
2017-07-03T01:03:31.758Z,75.96
2017-07-03T01:04:27.995Z,75.99
2017-07-03T01:05:24.214Z,76.05
2017-07-03T01:06:20.463Z,76.10
2017-07-03T01:07:16.699Z,76.16
2017-07-03T01:08:12.925Z,76.15
2017-07-03T01:09:09.153Z,76.19
2017-07-03T01:10:05.382Z,76.24
2017-07-03T01:11:01.601Z,76.28
2017-07-03T01:11:57.865Z,76.23
2017-07-03T01:12:54.099Z,76.33
2017-07-03T01:13:50.321Z,76.38
2017-07-03T01:14:46.542Z,76.44
2017-07-03T01:15:42.762Z,76.40
2017-07-03T01:16:38.989Z,76.44
2017-07-03T01:17:35.238Z,76.45
2017-07-03T01:18:31.467Z,76.44
2017-07-03T01:19:27.682Z,76.49
2017-07-03T01:20:23.902Z,76.51
2017-07-03T01:21:20.123Z,76.47
2017-07-03T01:22:16.374Z,76.50
2017-07-03T01:23:12.606Z,76.49
2017-07-03T01:24:08.825Z,76.50
2017-07-03T01:25:05.090Z,76.49
2017-07-03T01:26:01.310Z,76.51
2017-07-03T01:26:57.551Z,76.56
2017-07-03T01:27:53.786Z,76.60
2017-07-03T01:28:50.026Z,76.71
2017-07-03T01:29:46.245Z,76.78
2017-07-03T01:30:42.482Z,76.85
2017-07-03T01:31:38.706Z,76.86
2017-07-03T01:32:34.961Z,76.90
2017-07-03T01:33:31.190Z,76.93
2017-07-03T01:34:27.419Z,76.88
2017-07-03T01:35:23.642Z,76.88
2017-07-03T01:36:19.871Z,76.94
2017-07-03T01:37:16.115Z,77.00
2017-07-03T01:38:12.367Z,77.03
2017-07-03T01:39:08.610Z,77.07
2017-07-03T01:40:04.826Z,77.10
2017-07-03T01:41:01.050Z,77.21
2017-07-03T01:41:57.266Z,77.19
2017-07-03T01:42:53.486Z,77.24
2017-07-03T01:43:49.734Z,77.30
2017-07-03T01:44:45.976Z,77.29
2017-07-03T01:45:42.203Z,77.35
2017-07-03T01:46:38.426Z,77.42
2017-07-03T01:47:34.670Z,77.46
2017-07-03T01:48:30.922Z,77.53
2017-07-03T01:49:27.163Z,77.54
2017-07-03T01:50:23.382Z,77.56
2017-07-03T01:51:19.598Z,77.66
2017-07-03T01:52:15.839Z,77.64
2017-07-03T01:53:12.169Z,77.65
2017-07-03T01:54:08.431Z,77.65
2017-07-03T01:55:04.659Z,77.73
2017-07-03T01:56:00.878Z,77.80
2017-07-03T01:56:57.103Z,77.85
2017-07-03T01:57:53.335Z,77.89
2017-07-03T01:58:49.564Z,78.00
2017-07-03T01:59:45.799Z,77.99
2017-07-03T02:00:42.026Z,78.00
2017-07-03T02:01:38.242Z,78.06
2017-07-03T02:02:34.467Z,78.12
2017-07-03T02:03:30.714Z,78.11
2017-07-03T02:04:26.951Z,78.25
2017-07-03T02:05:23.170Z,78.27
2017-07-03T02:06:19.386Z,78.25
2017-07-03T02:07:15.627Z,78.27
2017-07-03T02:08:11.854Z,78.33
2017-07-03T02:09:08.084Z,78.33
2017-07-03T02:10:04.326Z,78.39
2017-07-03T02:11:00.567Z,78.38
2017-07-03T02:11:56.799Z,78.42
2017-07-03T02:12:53.063Z,78.40
2017-07-03T02:13:49.338Z,78.46
2017-07-03T02:14:45.557Z,78.50
2017-07-03T02:15:41.798Z,78.54
2017-07-03T02:16:38.014Z,78.63
2017-07-03T02:17:34.230Z,78.73
2017-07-03T02:18:30.470Z,78.66
2017-07-03T02:19:26.699Z,78.75
2017-07-03T02:20:22.938Z,78.72
2017-07-03T02:21:19.178Z,78.73
2017-07-03T02:22:15.393Z,78.73
2017-07-03T02:23:11.614Z,78.78
2017-07-03T02:24:07.850Z,78.85
2017-07-03T02:25:04.090Z,78.87
2017-07-03T02:26:00.322Z,78.84
2017-07-03T02:26:56.562Z,78.92
2017-07-03T02:27:52.791Z,78.87
2017-07-03T02:28:49.009Z,78.86
2017-07-03T02:29:45.239Z,78.86
2017-07-03T02:30:41.459Z,78.97
2017-07-03T02:31:37.698Z,78.97
2017-07-03T02:32:33.922Z,79.02
2017-07-03T02:33:30.155Z,78.99
2017-07-03T02:34:26.386Z,79.00
2017-07-03T02:35:22.618Z,78.99
2017-07-03T02:36:18.847Z,79.01
2017-07-03T02:37:15.094Z,78.99
2017-07-03T02:38:11.321Z,79.10
2017-07-03T02:39:07.554Z,79.27
2017-07-03T02:40:03.782Z,79.47
2017-07-03T02:41:00.014Z,79.62
2017-07-03T02:41:56.254Z,79.77
2017-07-03T02:42:52.480Z,79.90
2017-07-03T02:43:48.699Z,80.00
2017-07-03T02:44:44.926Z,80.13
2017-07-03T02:45:41.146Z,80.21
2017-07-03T02:46:37.362Z,80.30
2017-07-03T02:47:33.611Z,80.37
2017-07-03T02:48:29.846Z,80.46
2017-07-03T02:49:26.072Z,80.50
2017-07-03T02:50:22.297Z,80.58
2017-07-03T02:51:18.527Z,80.66
2017-07-03T02:52:14.770Z,80.76
2017-07-03T02:53:10.987Z,80.87
2017-07-03T02:54:07.208Z,80.97
2017-07-03T02:55:03.437Z,81.03
2017-07-03T02:55:59.686Z,81.14
2017-07-03T02:56:55.910Z,81.20
2017-07-03T02:57:52.144Z,81.27
2017-07-03T02:58:48.374Z,81.31
2017-07-03T02:59:44.595Z,81.35
2017-07-03T03:00:40.830Z,81.43
2017-07-03T03:01:37.050Z,81.51
2017-07-03T03:02:33.270Z,81.55
2017-07-03T03:03:29.514Z,81.61
2017-07-03T03:04:25.735Z,81.65
2017-07-03T03:05:21.966Z,81.69
2017-07-03T03:06:18.196Z,81.76
2017-07-03T03:07:14.415Z,81.81
2017-07-03T03:08:10.654Z,81.81
2017-07-03T03:09:06.883Z,81.85
2017-07-03T03:10:03.110Z,81.90
2017-07-03T03:10:59.330Z,81.93
2017-07-03T03:11:55.546Z,81.96
2017-07-03T03:12:51.764Z,82.00
2017-07-03T03:13:48.003Z,82.05
2017-07-03T03:14:44.238Z,82.10
2017-07-03T03:15:40.466Z,82.14
2017-07-03T03:16:36.689Z,82.17
2017-07-03T03:17:32.901Z,82.20
2017-07-03T03:18:29.152Z,82.23
2017-07-03T03:19:25.378Z,82.28
2017-07-03T03:20:21.611Z,82.33
2017-07-03T03:21:17.826Z,82.38
2017-07-03T03:22:14.045Z,82.40
2017-07-03T03:23:10.259Z,82.45
2017-07-03T03:24:06.507Z,82.46
2017-07-03T03:25:02.739Z,82.47
2017-07-03T03:25:58.962Z,82.50
2017-07-03T03:26:55.182Z,82.54
2017-07-03T03:27:51.414Z,82.57
2017-07-03T03:28:47.658Z,82.58
2017-07-03T03:29:43.875Z,82.62
2017-07-03T03:30:40.094Z,82.63
2017-07-03T03:31:36.330Z,82.69
2017-07-03T03:32:32.562Z,82.72
2017-07-03T03:33:28.782Z,82.74
2017-07-03T03:34:25.022Z,82.78
2017-07-03T03:35:21.242Z,82.83
2017-07-03T03:36:17.463Z,82.80
2017-07-03T03:37:13.678Z,82.84
2017-07-03T03:38:09.897Z,82.84
2017-07-03T03:39:06.122Z,82.86
2017-07-03T03:40:02.362Z,82.89
2017-07-03T03:40:58.581Z,82.94
2017-07-03T03:41:54.821Z,82.94
2017-07-03T03:42:51.041Z,82.95
2017-07-03T03:43:47.275Z,82.96
2017-07-03T03:44:43.498Z,83.00
2017-07-03T03:45:39.735Z,83.01
2017-07-03T03:46:35.961Z,83.05
2017-07-03T03:47:32.183Z,83.09
2017-07-03T03:48:28.408Z,83.09
2017-07-03T03:49:24.626Z,83.13
2017-07-03T03:50:20.883Z,83.17
2017-07-03T03:51:17.099Z,83.24
2017-07-03T03:52:13.322Z,83.32
2017-07-03T03:53:09.559Z,83.37
2017-07-03T03:54:05.777Z,83.43
2017-07-03T03:55:01.998Z,83.48
2017-07-03T03:55:58.251Z,83.55
2017-07-03T03:56:54.496Z,83.58
2017-07-03T03:57:50.727Z,83.63
2017-07-03T03:58:46.950Z,83.69
2017-07-03T03:59:43.166Z,83.74
2017-07-03T04:00:39.386Z,83.77
2017-07-03T04:01:35.622Z,83.83
2017-07-03T04:02:31.841Z,83.86
2017-07-03T04:03:28.066Z,83.90
2017-07-03T04:04:24.287Z,83.95
2017-07-03T04:05:20.514Z,83.99
2017-07-03T04:06:16.762Z,84.08
2017-07-03T04:07:12.978Z,84.15
2017-07-03T04:08:09.211Z,84.19
2017-07-03T04:09:05.444Z,84.25
2017-07-03T04:10:01.678Z,84.33
2017-07-03T04:10:57.905Z,84.38
2017-07-03T04:11:54.161Z,84.41
2017-07-03T04:12:50.387Z,84.48
2017-07-03T04:13:46.611Z,84.49
2017-07-03T04:14:42.839Z,84.52
2017-07-03T04:15:39.054Z,84.56
2017-07-03T04:16:36.432Z,84.59
2017-07-03T04:17:32.667Z,84.61
2017-07-03T04:18:28.891Z,84.64
2017-07-03T04:19:25.115Z,84.67
2017-07-03T04:20:21.346Z,84.68
2017-07-03T04:21:17.578Z,84.74
2017-07-03T04:22:13.817Z,84.79
2017-07-03T04:23:10.038Z,84.83
2017-07-03T04:24:06.258Z,84.84
2017-07-03T04:25:02.493Z,84.85
2017-07-03T04:25:58.794Z,84.84
2017-07-03T04:26:55.062Z,84.83
2017-07-03T04:27:51.350Z,84.82
2017-07-03T04:28:47.632Z,84.79
2017-07-03T04:29:43.915Z,84.80
2017-07-03T04:30:40.134Z,84.76
2017-07-03T04:31:36.374Z,84.77
2017-07-03T04:32:32.602Z,84.75
2017-07-03T04:33:28.846Z,84.74
2017-07-03T04:34:25.061Z,84.74
2017-07-03T04:35:21.278Z,84.74
2017-07-03T04:36:17.493Z,84.74
2017-07-03T04:37:13.734Z,84.75
2017-07-03T04:38:09.954Z,84.73
2017-07-03T04:39:06.194Z,84.79
2017-07-03T04:40:02.417Z,84.79
2017-07-03T04:40:58.630Z,84.81
2017-07-03T04:41:54.880Z,84.83
2017-07-03T04:42:51.126Z,84.83
2017-07-03T04:43:47.347Z,84.84
2017-07-03T04:44:43.580Z,84.85
2017-07-03T04:45:39.810Z,84.87
2017-07-03T04:46:36.034Z,84.90
2017-07-03T04:47:32.257Z,84.88
2017-07-03T04:48:28.483Z,84.89
2017-07-03T04:49:24.730Z,84.89
2017-07-03T04:50:21.002Z,84.90
2017-07-03T04:51:17.227Z,84.87
2017-07-03T04:52:13.454Z,84.88
2017-07-03T04:53:09.678Z,84.88
2017-07-03T04:54:05.926Z,84.89
2017-07-03T04:55:02.166Z,84.90
2017-07-03T04:55:58.393Z,84.92
2017-07-03T04:56:54.619Z,84.93
2017-07-03T04:57:50.850Z,84.94
2017-07-03T04:58:47.070Z,84.96
2017-07-03T04:59:43.322Z,84.97
2017-07-03T05:00:39.548Z,84.98
2017-07-03T05:01:35.782Z,85.02
2017-07-03T05:02:32.554Z,85.08
2017-07-03T05:03:28.783Z,85.16
2017-07-03T05:04:25.027Z,85.22
2017-07-03T05:05:21.274Z,85.25
2017-07-03T05:06:17.506Z,85.28
2017-07-03T05:07:13.741Z,85.30
2017-07-03T05:08:09.978Z,85.30
2017-07-03T05:09:06.261Z,85.29
2017-07-03T05:10:02.498Z,85.28
2017-07-03T05:10:58.739Z,85.26
2017-07-03T05:11:54.974Z,85.24
2017-07-03T05:12:51.213Z,85.24
2017-07-03T05:13:47.452Z,85.21
2017-07-03T05:14:43.691Z,85.22
2017-07-03T05:15:39.922Z,85.24
2017-07-03T05:16:36.166Z,85.23
2017-07-03T05:17:32.390Z,85.26
2017-07-03T05:18:28.702Z,85.28
2017-07-03T05:19:24.942Z,85.31
2017-07-03T05:20:21.187Z,85.32
2017-07-03T05:21:17.454Z,85.35
2017-07-03T05:22:13.674Z,85.38
2017-07-03T05:23:09.918Z,85.39
2017-07-03T05:24:06.154Z,85.39
2017-07-03T05:25:02.430Z,85.40
2017-07-03T05:25:58.654Z,85.41
2017-07-03T05:26:54.898Z,85.42
2017-07-03T05:27:51.141Z,85.38
2017-07-03T05:28:47.374Z,85.37
2017-07-03T05:29:43.622Z,85.34
2017-07-03T05:30:39.862Z,85.30
2017-07-03T05:31:36.190Z,85.27
2017-07-03T05:32:32.462Z,85.22
2017-07-03T05:33:28.703Z,85.17
2017-07-03T05:34:24.978Z,85.12
2017-07-03T05:35:21.214Z,85.08
2017-07-03T05:36:17.441Z,85.05
2017-07-03T05:37:13.694Z,85.06
2017-07-03T05:38:09.933Z,85.05
2017-07-03T05:39:06.208Z,85.06
2017-07-03T05:40:02.468Z,85.04
2017-07-03T05:40:58.702Z,85.02
2017-07-03T05:41:54.939Z,85.02
2017-07-03T05:42:51.205Z,85.05
2017-07-03T05:43:52.129Z,85.06
2017-07-03T05:44:53.058Z,85.06
2017-07-03T05:45:49.286Z,85.09
2017-07-03T05:46:45.519Z,85.09
2017-07-03T05:47:41.762Z,85.11
2017-07-03T05:48:38.031Z,85.12
2017-07-03T05:49:34.254Z,85.14
2017-07-03T05:50:30.478Z,85.18
2017-07-03T05:51:26.707Z,85.20
2017-07-03T05:52:22.931Z,85.20
2017-07-03T05:53:19.183Z,85.21
2017-07-03T05:54:15.426Z,85.23
2017-07-03T05:55:11.662Z,85.23
2017-07-03T05:56:07.922Z,85.25
2017-07-03T05:57:04.155Z,85.25
2017-07-03T05:58:00.386Z,85.24
2017-07-03T05:58:56.635Z,85.23
2017-07-03T05:59:52.918Z,85.20
2017-07-03T06:00:49.193Z,85.23
2017-07-03T06:01:45.466Z,85.24
2017-07-03T06:02:41.703Z,85.23
2017-07-03T06:03:38.011Z,85.22
2017-07-03T06:04:34.294Z,85.16
2017-07-03T06:05:30.538Z,85.11
2017-07-03T06:06:26.766Z,85.08
2017-07-03T06:07:23.002Z,85.03
2017-07-03T06:08:19.239Z,84.97
2017-07-03T06:09:15.486Z,84.91
2017-07-03T06:10:11.705Z,84.84
2017-07-03T06:11:07.931Z,84.80
2017-07-03T06:12:04.169Z,84.74
2017-07-03T06:13:00.399Z,84.69
2017-07-03T06:13:56.626Z,84.64
2017-07-03T06:14:52.877Z,84.59
2017-07-03T06:15:49.122Z,84.53
2017-07-03T06:16:45.354Z,84.47
2017-07-03T06:17:41.577Z,84.42
2017-07-03T06:18:37.815Z,84.37
2017-07-03T06:19:34.035Z,84.37
2017-07-03T06:20:30.274Z,84.34
2017-07-03T06:21:26.510Z,84.31
2017-07-03T06:22:22.749Z,84.27
2017-07-03T06:23:18.971Z,84.22
2017-07-03T06:24:15.206Z,84.18
2017-07-03T06:25:11.451Z,84.13
2017-07-03T06:26:07.726Z,84.05
2017-07-03T06:27:03.918Z,83.99
2017-07-03T06:28:00.146Z,83.94
2017-07-03T06:28:56.396Z,83.90
2017-07-03T06:29:52.629Z,83.86
2017-07-03T06:30:48.873Z,83.78
2017-07-03T06:31:45.100Z,83.63
2017-07-03T06:32:41.326Z,83.45
2017-07-03T06:33:37.570Z,83.30
2017-07-03T06:34:33.802Z,83.13
2017-07-03T06:35:30.067Z,83.04
2017-07-03T06:36:26.306Z,82.88
2017-07-03T06:37:22.546Z,82.79
2017-07-03T06:38:18.819Z,82.71
2017-07-03T06:39:15.959Z,82.67
2017-07-03T06:40:12.203Z,82.65
2017-07-03T06:41:08.454Z,82.65
2017-07-03T06:42:04.680Z,82.66
2017-07-03T06:43:00.914Z,82.62
2017-07-03T06:43:57.150Z,82.59
2017-07-03T06:44:53.383Z,82.58
2017-07-03T06:45:49.614Z,82.57
2017-07-03T06:46:45.875Z,82.51
2017-07-03T06:47:42.101Z,82.45
2017-07-03T06:48:38.323Z,82.35
2017-07-03T06:49:34.562Z,82.31
2017-07-03T06:50:30.807Z,82.18
2017-07-03T06:51:27.056Z,81.96
2017-07-03T06:52:23.315Z,81.73
2017-07-03T06:53:19.551Z,81.49
2017-07-03T06:54:15.783Z,81.36
2017-07-03T06:55:12.050Z,81.17
2017-07-03T06:56:08.277Z,80.95
2017-07-03T06:57:04.507Z,80.81
2017-07-03T06:58:00.755Z,80.64
2017-07-03T06:58:56.978Z,80.47
2017-07-03T06:59:53.206Z,80.30
2017-07-03T07:00:49.453Z,80.30
2017-07-03T07:01:45.699Z,80.25
2017-07-03T07:02:41.958Z,80.18
2017-07-03T07:03:38.254Z,80.07
2017-07-03T07:04:34.481Z,79.83
2017-07-03T07:05:30.706Z,79.47
2017-07-03T07:06:26.946Z,78.97
2017-07-03T07:07:23.195Z,78.68
2017-07-03T07:08:19.442Z,78.56
2017-07-03T07:09:15.684Z,78.39
2017-07-03T07:10:11.946Z,78.16
2017-07-03T07:11:08.180Z,78.09
2017-07-03T07:12:04.418Z,78.00
2017-07-03T07:13:00.674Z,77.98
2017-07-03T07:13:56.912Z,78.01
2017-07-03T07:14:53.137Z,77.86
2017-07-03T07:15:49.457Z,77.83
2017-07-03T07:16:45.674Z,77.65
2017-07-03T07:17:41.908Z,77.47
2017-07-03T07:18:38.155Z,77.21
2017-07-03T07:19:34.477Z,77.00
2017-07-03T07:20:30.751Z,76.75
2017-07-03T07:21:26.984Z,76.47
2017-07-03T07:22:23.214Z,76.22
2017-07-03T07:23:19.475Z,76.06
2017-07-03T07:24:15.751Z,75.93
2017-07-03T07:25:11.987Z,75.76
2017-07-03T07:26:08.222Z,75.58
2017-07-03T07:27:04.450Z,75.40
2017-07-03T07:28:00.686Z,75.37
2017-07-03T07:28:56.931Z,75.53
2017-07-03T07:29:53.162Z,75.57
2017-07-03T07:30:49.387Z,75.58
2017-07-03T07:31:45.624Z,75.54
2017-07-03T07:32:41.862Z,75.40
2017-07-03T07:33:38.121Z,75.27
2017-07-03T07:34:34.355Z,75.19
2017-07-03T07:35:30.616Z,75.04
2017-07-03T07:36:26.837Z,74.88
2017-07-03T07:37:23.103Z,74.64
2017-07-03T07:38:19.438Z,74.55
2017-07-03T07:39:15.695Z,74.51
2017-07-03T07:40:11.934Z,74.35
2017-07-03T07:41:08.174Z,73.86
2017-07-03T07:42:04.402Z,73.73
2017-07-03T07:43:00.639Z,73.78
2017-07-03T07:43:56.898Z,73.81
2017-07-03T07:44:53.151Z,73.70
2017-07-03T07:45:49.395Z,73.56
2017-07-03T07:46:45.642Z,73.50
2017-07-03T07:47:41.863Z,73.54
2017-07-03T07:48:38.101Z,73.21
2017-07-03T07:49:34.339Z,73.00
2017-07-03T07:50:30.574Z,72.57
2017-07-03T07:51:26.826Z,72.21
2017-07-03T07:52:23.050Z,71.88
2017-07-03T07:53:19.295Z,70.94
2017-07-03T07:54:15.547Z,71.03
2017-07-03T07:55:11.798Z,70.74
2017-07-03T07:56:08.026Z,70.56
2017-07-03T07:57:04.279Z,70.57
2017-07-03T07:58:00.574Z,70.52
2017-07-03T07:58:56.803Z,70.41
2017-07-03T07:59:53.035Z,70.18
2017-07-03T08:00:49.274Z,69.99
2017-07-03T08:01:45.506Z,69.87
2017-07-03T08:02:41.751Z,69.67
2017-07-03T08:03:37.994Z,69.25
2017-07-03T08:04:34.235Z,69.16
2017-07-03T08:05:30.495Z,68.98
2017-07-03T08:06:26.729Z,68.14
2017-07-03T08:07:22.961Z,68.41
2017-07-03T08:08:19.191Z,68.48
2017-07-03T08:09:15.431Z,68.60
2017-07-03T08:10:11.667Z,68.34
2017-07-03T08:11:07.915Z,68.31
2017-07-03T08:12:04.154Z,68.30
2017-07-03T08:13:00.394Z,68.13
2017-07-03T08:13:56.623Z,67.94
2017-07-03T08:14:52.861Z,67.98
2017-07-03T08:15:49.106Z,68.00
2017-07-03T08:16:45.342Z,68.08
2017-07-03T08:17:41.571Z,68.15
2017-07-03T08:18:37.806Z,68.30
2017-07-03T08:19:34.036Z,68.38
2017-07-03T08:20:30.274Z,68.45
2017-07-03T08:21:26.514Z,68.55
2017-07-03T08:22:22.737Z,68.58
2017-07-03T08:23:18.970Z,68.38
2017-07-03T08:24:15.195Z,68.08
2017-07-03T08:25:11.430Z,68.01
2017-07-03T08:26:07.670Z,67.82
2017-07-03T08:27:03.922Z,67.66
2017-07-03T08:28:00.170Z,67.65
2017-07-03T08:28:56.403Z,67.84
2017-07-03T08:29:52.639Z,68.07
2017-07-03T08:30:48.874Z,68.15
2017-07-03T08:31:45.139Z,68.23
2017-07-03T08:32:41.386Z,68.22
2017-07-03T08:33:37.626Z,68.12
2017-07-03T08:34:33.872Z,68.17
2017-07-03T08:35:30.106Z,68.21
2017-07-03T08:36:26.352Z,68.20
2017-07-03T08:37:22.598Z,68.21
2017-07-03T08:38:18.842Z,68.21
2017-07-03T08:39:15.106Z,68.08
2017-07-03T08:40:11.334Z,67.88
2017-07-03T08:41:07.565Z,67.53
2017-07-03T08:42:03.815Z,67.38
2017-07-03T08:43:00.055Z,67.22
2017-07-03T08:43:56.283Z,67.35
2017-07-03T08:44:52.522Z,67.49
2017-07-03T08:45:48.755Z,67.54
2017-07-03T08:46:45.002Z,67.48
2017-07-03T08:47:41.263Z,67.30
2017-07-03T08:48:37.494Z,67.43
2017-07-03T08:49:33.733Z,67.47
2017-07-03T08:50:29.973Z,67.53
2017-07-03T08:51:26.217Z,67.65
2017-07-03T08:52:22.446Z,67.66
2017-07-03T08:53:18.694Z,67.68
2017-07-03T08:54:14.927Z,67.68
2017-07-03T08:55:11.169Z,67.74
2017-07-03T08:56:07.406Z,67.78
2017-07-03T08:57:03.645Z,67.83
2017-07-03T08:57:59.895Z,67.97
2017-07-03T08:58:56.129Z,68.07
2017-07-03T08:59:52.367Z,68.21
2017-07-03T09:00:48.598Z,67.68
2017-07-03T09:01:44.820Z,66.74
2017-07-03T09:02:41.055Z,65.90
2017-07-03T09:03:37.313Z,65.47
2017-07-03T09:04:33.546Z,65.21
2017-07-03T09:05:29.771Z,64.84
2017-07-03T09:06:26.007Z,64.12
2017-07-03T09:07:22.259Z,63.93
2017-07-03T09:08:18.520Z,63.39
2017-07-03T09:09:14.771Z,63.18
2017-07-03T09:10:11.018Z,62.84
2017-07-03T09:11:07.242Z,62.58
2017-07-03T09:12:03.463Z,62.37
2017-07-03T09:12:59.700Z,61.92
2017-07-03T09:13:56.139Z,62.09
2017-07-03T09:14:52.402Z,62.22
2017-07-03T09:15:48.641Z,61.62
2017-07-03T09:16:44.881Z,61.15
2017-07-03T09:17:41.120Z,60.90
2017-07-03T09:18:37.366Z,61.19
2017-07-03T09:19:33.599Z,61.16
2017-07-03T09:20:29.837Z,60.63
2017-07-03T09:21:26.062Z,60.28
2017-07-03T09:22:22.298Z,60.20
2017-07-03T09:23:18.526Z,59.67
2017-07-03T09:24:14.782Z,59.26
2017-07-03T09:25:11.007Z,58.98
2017-07-03T09:26:07.238Z,58.93
2017-07-03T09:27:03.473Z,58.99
2017-07-03T09:27:59.707Z,59.01
2017-07-03T09:28:55.943Z,59.12
2017-07-03T09:29:52.203Z,58.83
2017-07-03T09:30:48.441Z,59.08
2017-07-03T09:31:44.666Z,58.95
2017-07-03T09:32:40.903Z,59.03
2017-07-03T09:33:37.142Z,58.80
2017-07-03T09:34:33.359Z,58.32
2017-07-03T09:35:29.616Z,58.00
2017-07-03T09:36:25.874Z,58.03
2017-07-03T09:37:22.106Z,57.77
2017-07-03T09:38:18.330Z,57.15
2017-07-03T09:39:14.555Z,56.81
2017-07-03T09:40:10.815Z,56.55
2017-07-03T09:41:07.066Z,56.72
2017-07-03T09:42:03.302Z,57.05
2017-07-03T09:42:59.530Z,57.15
2017-07-03T09:43:55.760Z,57.27
2017-07-03T09:44:51.998Z,57.11
2017-07-03T09:45:48.255Z,56.76
2017-07-03T09:46:44.483Z,56.34
2017-07-03T09:47:40.707Z,55.89
2017-07-03T09:48:36.931Z,55.78
2017-07-03T09:49:33.151Z,55.78
2017-07-03T09:50:29.422Z,55.88
2017-07-03T09:51:25.662Z,56.17
2017-07-03T09:52:21.924Z,56.37
2017-07-03T09:53:18.158Z,56.47
2017-07-03T09:54:14.386Z,55.94
2017-07-03T09:55:10.634Z,56.13
2017-07-03T09:56:06.885Z,56.42
2017-07-03T09:57:03.115Z,56.52
2017-07-03T09:57:59.338Z,56.31
2017-07-03T09:58:55.574Z,55.97
2017-07-03T09:59:51.814Z,55.56
2017-07-03T10:00:48.050Z,55.10
2017-07-03T10:01:44.291Z,55.01
2017-07-03T10:02:40.533Z,54.73
2017-07-03T10:03:36.755Z,54.54
2017-07-03T10:04:32.995Z,54.45
2017-07-03T10:05:30.227Z,53.78
2017-07-03T10:06:26.455Z,53.31
2017-07-03T10:07:22.702Z,52.50
2017-07-03T10:08:18.938Z,52.30
2017-07-03T10:09:15.179Z,51.82
2017-07-03T10:10:11.430Z,51.58
2017-07-03T10:11:07.671Z,51.56
2017-07-03T10:12:03.914Z,51.04
2017-07-03T10:13:00.148Z,51.13
2017-07-03T10:13:56.371Z,51.02
2017-07-03T10:14:52.608Z,51.31
2017-07-03T10:15:48.858Z,51.36
2017-07-03T10:16:45.098Z,51.25
2017-07-03T10:17:41.322Z,51.08
2017-07-03T10:18:37.555Z,50.76
2017-07-03T10:19:33.778Z,50.33
2017-07-03T10:20:30.120Z,49.67
2017-07-03T10:21:26.357Z,49.90
2017-07-03T10:22:22.612Z,49.34
2017-07-03T10:23:18.856Z,49.21
2017-07-03T10:24:15.094Z,49.05
2017-07-03T10:25:11.322Z,48.63
2017-07-03T10:26:07.554Z,48.46
2017-07-03T10:27:03.786Z,48.12
2017-07-03T10:28:00.027Z,48.11
2017-07-03T10:28:56.258Z,48.35
2017-07-03T10:29:52.487Z,47.91
2017-07-03T10:30:48.723Z,47.61
2017-07-03T10:31:44.969Z,47.86
2017-07-03T10:32:41.221Z,47.48
2017-07-03T10:33:37.447Z,47.58
2017-07-03T10:34:33.678Z,47.73
2017-07-03T10:35:29.907Z,47.84
2017-07-03T10:36:26.178Z,47.84
2017-07-03T10:37:22.413Z,47.68
2017-07-03T10:38:18.658Z,47.42
2017-07-03T10:39:14.882Z,46.85
2017-07-03T10:40:11.117Z,46.71
2017-07-03T10:41:07.350Z,46.72
2017-07-03T10:42:03.610Z,46.78
2017-07-03T10:42:59.843Z,46.77
2017-07-03T10:43:56.088Z,46.86
2017-07-03T10:44:52.322Z,46.74
2017-07-03T10:45:48.555Z,47.07
2017-07-03T10:46:44.802Z,46.66
2017-07-03T10:47:41.027Z,47.05
2017-07-03T10:48:37.271Z,46.98
2017-07-03T10:49:33.522Z,46.66
2017-07-03T10:50:29.760Z,46.80
2017-07-03T10:51:26.003Z,46.66
2017-07-03T10:52:22.245Z,46.33
2017-07-03T10:53:18.495Z,46.47
2017-07-03T10:54:14.735Z,46.83
2017-07-03T10:55:10.986Z,46.81
2017-07-03T10:56:07.215Z,46.41
2017-07-03T10:57:03.467Z,46.18
2017-07-03T10:57:59.703Z,46.06
2017-07-03T10:58:55.927Z,46.34
2017-07-03T10:59:52.166Z,46.34
2017-07-03T11:00:48.418Z,46.39
2017-07-03T11:01:44.679Z,46.09
2017-07-03T11:02:40.902Z,46.17
2017-07-03T11:03:37.143Z,46.38
2017-07-03T11:04:33.382Z,46.42
2017-07-03T11:05:29.626Z,46.81
2017-07-03T11:06:25.869Z,47.24
2017-07-03T11:07:22.118Z,47.33
2017-07-03T11:08:18.354Z,46.76
2017-07-03T11:09:14.582Z,46.43
2017-07-03T11:10:10.811Z,46.15
2017-07-03T11:11:07.071Z,45.75
2017-07-03T11:12:03.302Z,45.57
2017-07-03T11:12:59.561Z,45.69
2017-07-03T11:13:55.791Z,45.71
2017-07-03T11:14:52.030Z,45.47
2017-07-03T11:15:48.267Z,45.35
2017-07-03T11:16:44.514Z,45.52
2017-07-03T11:17:40.759Z,45.32
2017-07-03T11:18:36.983Z,45.38
2017-07-03T11:19:33.207Z,45.32
2017-07-03T11:20:29.447Z,44.96
2017-07-03T11:21:25.699Z,45.00
2017-07-03T11:22:21.974Z,44.99
2017-07-03T11:23:18.194Z,44.85
2017-07-03T11:24:14.419Z,45.15
2017-07-03T11:25:10.654Z,45.53
2017-07-03T11:26:06.887Z,46.00
2017-07-03T11:27:03.130Z,46.25
2017-07-03T11:27:59.362Z,46.28
2017-07-03T11:28:55.594Z,46.23
2017-07-03T11:29:51.817Z,46.08
2017-07-03T11:30:48.042Z,46.20
2017-07-03T11:31:44.307Z,46.05
2017-07-03T11:32:40.555Z,46.08
2017-07-03T11:33:36.797Z,45.93
2017-07-03T11:34:33.018Z,46.11
2017-07-03T11:35:29.258Z,46.02
2017-07-03T11:36:25.488Z,45.85
2017-07-03T11:37:21.735Z,45.56
2017-07-03T11:38:17.989Z,45.44
2017-07-03T11:39:14.210Z,45.72
2017-07-03T11:40:10.446Z,45.55
2017-07-03T11:41:06.681Z,44.88
2017-07-03T11:42:02.902Z,44.54
2017-07-03T11:42:59.151Z,44.10
2017-07-03T11:43:56.295Z,43.73
2017-07-03T11:44:52.538Z,43.19
2017-07-03T11:45:48.770Z,43.36
2017-07-03T11:46:44.995Z,43.78
2017-07-03T11:47:41.235Z,44.24
2017-07-03T11:48:37.486Z,44.21
2017-07-03T11:49:33.710Z,44.19
2017-07-03T11:50:29.943Z,44.14
2017-07-03T11:51:26.161Z,44.15
2017-07-03T11:52:22.395Z,44.04
2017-07-03T11:53:18.625Z,43.90
2017-07-03T11:54:14.862Z,43.94
2017-07-03T11:55:11.087Z,43.44
2017-07-03T11:56:07.322Z,43.32
2017-07-03T11:57:03.542Z,43.02
2017-07-03T11:57:59.794Z,42.96
2017-07-03T11:58:56.038Z,42.94
2017-07-03T11:59:52.278Z,43.17
2017-07-03T12:00:48.509Z,42.94
2017-07-03T12:01:44.738Z,42.75
2017-07-03T12:02:40.957Z,42.45
2017-07-03T12:03:37.185Z,42.13
2017-07-03T12:04:33.430Z,41.95